Time;durP1;ratioP1;P1;durP2;ratioP2;P2;SDS_P1;SDS_P2;PMS_P1;PMS_P2;Temp;Humidity;BMP_temperature;BMP_pressure;BME280_temperature;BME280_humidity;BME280_pressure;Samples;Min_cycle;Max_cycle;Signal;HPM_P1;HPM_P2
2021/06/30 00:01:07;;;;;;;8.80;2.85;;;;;;;14.29;83.30;98987.88;5098155;27;20954;-78
2021/06/30 00:03:45;;;;;;;7.72;2.60;;;;;;;14.30;83.31;98989.59;5071498;28;20410;-80
2021/06/30 00:06:23;;;;;;;2.65;2.40;;;;;;;14.33;83.29;98998.25;5113179;27;20408;-77
2021/06/30 00:08:59;;;;;;;4.32;2.45;;;;;;;14.29;83.48;99002.72;5111526;27;20136;-77
2021/06/30 00:11:36;;;;;;;5.25;2.90;;;;;;;14.33;83.49;98995.63;5093239;27;20133;-82
2021/06/30 00:14:13;;;;;;;6.57;2.85;;;;;;;14.25;83.66;98974.94;5104087;27;1455976;-79
2021/06/30 00:16:52;;;;;;;6.93;3.28;;;;;;;14.46;83.76;99000.31;5113384;27;20423;-80
2021/06/30 00:19:30;;;;;;;6.03;3.08;;;;;;;14.51;83.60;98991.44;5071397;27;20395;-78
2021/06/30 00:22:07;;;;;;;8.55;3.50;;;;;;;14.57;83.66;99001.69;5071038;28;20406;-77
2021/06/30 00:24:44;;;;;;;7.05;2.78;;;;;;;14.43;83.54;98987.38;5110322;27;20579;-80
2021/06/30 00:27:20;;;;;;;7.47;3.00;;;;;;;14.45;83.52;98997.78;5093734;27;20628;-79
2021/06/30 00:29:57;;;;;;;7.75;2.80;;;;;;;14.16;83.49;98950.00;5111554;27;20137;-79
2021/06/30 00:32:33;;;;;;;4.72;3.00;;;;;;;14.39;83.43;98998.88;5111353;27;20140;-78
2021/06/30 00:35:13;;;;;;;5.60;2.88;;;;;;;14.36;83.45;99005.97;5109515;27;20133;-77
2021/06/30 00:37:50;;;;;;;5.35;2.78;;;;;;;14.31;83.60;99014.00;5069979;28;20406;-79
2021/06/30 00:40:27;;;;;;;8.30;2.60;;;;;;;14.26;83.61;99019.41;5110365;27;20615;-80
2021/06/30 00:43:05;;;;;;;7.22;2.80;;;;;;;14.24;83.83;99017.72;5070696;28;20410;-80
2021/06/30 00:45:47;;;;;;;4.15;3.00;;;;;;;14.00;83.86;98979.34;5069933;28;20921;-79
2021/06/30 00:48:26;;;;;;;5.80;3.40;;;;;;;14.04;83.90;98992.31;5070831;28;20410;-81
2021/06/30 00:51:04;;;;;;;5.03;2.92;;;;;;;14.10;83.96;99013.03;5110808;27;20415;-79
2021/06/30 00:53:41;;;;;;;5.30;3.30;;;;;;;14.07;84.02;99013.97;5072596;28;20142;-82
2021/06/30 00:56:24;;;;;;;3.88;2.78;;;;;;;13.87;84.22;98980.69;5110507;27;20136;-79
2021/06/30 00:59:02;;;;;;;4.80;3.13;;;;;;;13.91;84.46;98991.88;5137257;27;20406;-78
2021/06/30 01:01:40;;;;;;;4.03;2.88;;;;;;;14.03;84.24;99019.38;5091907;27;20409;-79
2021/06/30 01:04:17;;;;;;;5.85;2.97;;;;;;;13.95;84.16;99001.34;5111318;27;20132;-78
2021/06/30 01:06:53;;;;;;;5.30;3.35;;;;;;;13.84;84.19;98991.25;5110396;27;20132;-81
2021/06/30 01:09:31;;;;;;;7.38;3.75;;;;;;;13.86;84.68;98990.28;5052531;28;20139;-80
2021/06/30 01:12:21;;;;;;;6.55;3.70;;;;;;;13.95;84.71;99006.56;5112204;27;20132;-80
2021/06/30 01:15:07;;;;;;;6.90;4.00;;;;;;;13.90;84.70;98998.03;5112850;27;20129;-80
2021/06/30 01:17:47;;;;;;;10.77;3.80;;;;;;;13.94;84.87;98997.00;5112518;27;20420;-80
2021/06/30 01:20:24;;;;;;;7.60;3.38;;;;;;;13.96;85.01;99003.03;5112208;27;20419;-78
2021/06/30 01:23:09;;;;;;;6.45;3.70;;;;;;;13.85;85.10;98991.19;5070600;27;20145;-78
2021/06/30 01:25:48;;;;;;;3.80;3.38;;;;;;;13.98;85.00;99006.47;5074268;28;20411;-77
2021/06/30 01:28:29;;;;;;;9.85;3.40;;;;;;;13.99;85.09;99002.94;5105878;27;20412;-78
2021/06/30 01:31:08;;;;;;;4.55;3.38;;;;;;;13.83;85.17;98976.47;5140744;27;20212;-78
2021/06/30 01:33:46;;;;;;;3.55;3.00;;;;;;;13.98;85.17;98998.63;5115889;27;20133;-78
2021/06/30 01:36:24;;;;;;;4.18;2.92;;;;;;;14.04;85.37;99005.38;5094545;28;20118;-77
2021/06/30 01:39:02;;;;;;;8.73;3.40;;;;;;;13.99;85.36;98995.94;5113766;27;20121;-79
2021/06/30 01:41:41;;;;;;;5.25;3.22;;;;;;;14.06;85.12;99007.03;5129185;27;20136;-77
2021/06/30 01:44:18;;;;;;;4.50;3.45;;;;;;;14.03;85.43;99001.91;5085250;28;20195;-81
2021/06/30 01:46:57;;;;;;;5.15;3.22;;;;;;;14.08;85.57;99004.38;5148991;27;20124;-77
2021/06/30 01:49:40;;;;;;;5.53;3.30;;;;;;;14.08;85.51;99004.38;5151271;27;20116;-78
2021/06/30 01:52:17;;;;;;;4.60;2.80;;;;;;;13.86;85.54;98963.28;5123353;27;20408;-81
2021/06/30 01:54:53;;;;;;;4.30;2.97;;;;;;;14.15;85.67;99000.59;5089886;28;20165;-79
2021/06/30 01:57:30;;;;;;;5.72;3.55;;;;;;;14.09;85.62;98986.00;5131034;27;20116;-81
2021/06/30 02:00:09;;;;;;;5.63;3.20;;;;;;;14.16;85.85;98982.25;5168383;27;20122;-78
2021/06/30 02:02:49;;;;;;;9.70;4.50;;;;;;;14.23;85.86;98976.81;5096265;27;20928;-78
2021/06/30 02:05:27;;;;;;;5.38;3.33;;;;;;;14.38;85.80;98999.78;5115056;27;20416;-80
2021/06/30 02:08:05;;;;;;;4.40;3.05;;;;;;;14.39;85.70;98982.28;5115084;27;20408;-78
2021/06/30 02:10:43;;;;;;;3.95;3.03;;;;;;;14.36;85.83;98962.34;5092691;28;20416;-80
2021/06/30 02:13:21;;;;;;;5.35;3.00;;;;;;;14.42;85.68;98967.34;5114204;27;20411;-80
2021/06/30 02:15:58;;;;;;;4.75;2.88;;;;;;;14.42;85.65;98969.09;5073626;28;20141;-80
2021/06/30 02:18:38;;;;;;;7.07;2.90;;;;;;;14.59;85.56;98987.63;5114358;27;20407;-80
2021/06/30 02:21:17;;;;;;;7.30;2.95;;;;;;;14.74;85.81;99001.94;5112402;27;20759;-78
2021/06/30 02:23:54;;;;;;;5.25;3.13;;;;;;;14.81;85.62;99001.69;5110621;27;20471;-79
2021/06/30 02:26:33;;;;;;;4.45;3.05;;;;;;;14.86;85.52;99005.00;5061708;28;20147;-79
2021/06/30 02:29:10;;;;;;;4.78;3.30;;;;;;;14.89;85.73;98997.84;5092032;27;20409;-79
2021/06/30 02:31:45;;;;;;;5.22;3.30;;;;;;;14.97;85.50;99004.56;5103464;27;1395389;-78
2021/06/30 02:34:22;;;;;;;3.28;2.70;;;;;;;15.10;85.55;99015.41;5112552;27;20858;-78
2021/06/30 02:36:58;;;;;;;7.88;2.90;;;;;;;15.05;85.48;98977.16;5083018;28;20144;-78
2021/06/30 02:39:35;;;;;;;3.30;2.75;;;;;;;15.30;85.35;98999.75;5081877;28;20142;-78
2021/06/30 02:42:11;;;;;;;4.78;2.47;;;;;;;15.32;85.21;98966.47;5114462;27;20595;-79
2021/06/30 02:44:48;;;;;;;3.85;2.42;;;;;;;15.62;85.15;99002.75;5110710;27;20132;-80
2021/06/30 02:47:25;;;;;;;2.85;2.42;;;;;;;15.51;84.71;98986.66;5111010;27;20148;-80
2021/06/30 02:50:03;;;;;;;4.20;2.83;;;;;;;15.60;84.79;99004.59;5111029;27;20132;-77
2021/06/30 02:52:43;;;;;;;5.15;2.60;;;;;;;15.55;84.72;98979.50;5111382;27;20403;-79
2021/06/30 02:55:20;;;;;;;7.30;2.90;;;;;;;15.66;84.63;98978.13;5111700;27;20415;-78
2021/06/30 02:57:57;;;;;;;4.38;2.90;;;;;;;15.91;84.69;98990.22;5051487;28;20416;-78
2021/06/30 03:00:34;;;;;;;4.90;2.83;;;;;;;15.98;84.13;98958.47;5100997;27;20148;-79
2021/06/30 03:03:11;;;;;;;7.00;2.80;;;;;;;16.33;84.24;98993.59;5111110;27;20144;-78
2021/06/30 03:05:48;;;;;;;3.13;2.45;;;;;;;16.24;83.68;98962.53;5111666;27;20617;-78
2021/06/30 03:08:25;;;;;;;4.65;2.70;;;;;;;16.50;83.61;98998.06;5052165;27;20412;-80
2021/06/30 03:11:03;;;;;;;4.03;2.60;;;;;;;16.51;83.39;99005.03;5071720;28;20138;-78
2021/06/30 03:13:41;;;;;;;4.20;2.90;;;;;;;16.51;83.10;99005.03;5111635;27;20412;-76
2021/06/30 03:16:19;;;;;;;3.75;2.55;;;;;;;16.53;83.04;99000.56;5172584;27;20859;-77
2021/06/30 03:18:55;;;;;;;3.70;2.58;;;;;;;16.56;82.83;99000.44;5111548;27;20129;-77
2021/06/30 03:21:44;;;;;;;2.55;2.35;;;;;;;16.59;82.79;98993.34;5111193;27;20407;-78
2021/06/30 03:24:20;;;;;;;2.70;2.50;;;;;;;16.58;82.46;98986.38;5069654;28;20418;-79
2021/06/30 03:26:57;;;;;;;4.18;2.60;;;;;;;16.74;82.31;98997.84;5096828;27;20200;-79
2021/06/30 03:29:35;;;;;;;3.10;2.50;;;;;;;16.83;82.53;98992.19;5109958;27;20132;-79
2021/06/30 03:32:13;;;;;;;2.65;2.25;;;;;;;16.67;82.05;98971.03;5152937;27;20396;-80
2021/06/30 03:34:50;;;;;;;4.40;2.60;;;;;;;16.91;81.91;98989.19;5112050;27;20408;-79
2021/06/30 03:37:27;;;;;;;3.78;2.83;;;;;;;17.00;81.57;99001.06;5110580;27;20147;-81
2021/06/30 03:40:04;;;;;;;2.80;2.20;;;;;;;16.98;81.61;98976.63;5105045;27;1402040;-79
2021/06/30 03:42:42;;;;;;;5.90;2.20;;;;;;;17.10;81.06;98978.66;5108921;27;20892;-82
2021/06/30 03:45:23;;;;;;;5.63;2.25;;;;;;;17.28;81.26;98981.31;5070670;28;20422;-80
2021/06/30 03:47:59;;;;;;;3.35;2.20;;;;;;;17.30;80.96;98972.41;5069540;28;20138;-79
2021/06/30 03:50:36;;;;;;;3.40;2.20;;;;;;;17.39;80.62;98970.28;5110032;27;20139;-78
2021/06/30 03:53:12;;;;;;;2.92;2.20;;;;;;;17.43;80.38;98975.28;5110174;27;20156;-77
2021/06/30 03:55:49;;;;;;;3.83;2.17;;;;;;;17.55;80.26;98972.94;5111977;27;20133;-79
2021/06/30 03:58:26;;;;;;;3.47;2.50;;;;;;;17.75;79.98;98985.97;5060577;28;20241;-78
2021/06/30 04:01:01;;;;;;;3.00;2.25;;;;;;;17.88;80.02;98993.19;5090263;27;1398098;-78
2021/06/30 04:03:38;;;;;;;6.78;2.50;;;;;;;17.95;79.60;98972.69;5070082;28;20462;-78
2021/06/30 04:06:15;;;;;;;4.38;2.30;;;;;;;17.97;79.44;98948.00;5070019;28;20407;-78
2021/06/30 04:08:52;;;;;;;4.25;2.30;;;;;;;18.04;79.21;98946.75;5070580;28;20135;-79
2021/06/30 04:11:29;;;;;;;5.80;2.25;;;;;;;18.32;78.92;98982.13;5111111;27;20133;-77
2021/06/30 04:14:05;;;;;;;3.03;2.35;;;;;;;18.39;78.63;98979.19;5071505;27;20142;-77
2021/06/30 04:16:43;;;;;;;3.15;2.40;;;;;;;18.46;78.36;98970.00;5110882;27;20132;-78
2021/06/30 04:19:26;;;;;;;4.43;2.30;;;;;;;18.64;78.10;98982.16;5071844;28;20417;-77
2021/06/30 04:22:04;;;;;;;2.47;2.10;;;;;;;18.63;77.90;98948.00;5112039;27;20922;-78
2021/06/30 04:24:42;;;;;;;3.35;2.10;;;;;;;18.81;77.14;98986.47;5090682;27;20171;-79
2021/06/30 04:27:20;;;;;;;3.22;2.40;;;;;;;18.91;77.12;98994.72;5093293;27;20186;-79
2021/06/30 04:30:04;;;;;;;3.22;2.30;;;;;;;19.02;76.77;98994.16;5111703;27;20124;-78
2021/06/30 04:32:41;;;;;;;3.70;2.40;;;;;;;19.08;76.66;98977.16;5110086;27;20517;-79
2021/06/30 04:35:20;;;;;;;4.82;2.42;;;;;;;19.27;76.68;98988.34;5110873;27;20132;-79
2021/06/30 04:37:57;;;;;;;4.88;2.60;;;;;;;19.39;75.92;98992.06;5069998;28;20470;-81
2021/06/30 04:40:35;;;;;;;4.25;2.25;;;;;;;19.36;75.89;98979.03;5071993;28;20153;-79
2021/06/30 04:43:12;;;;;;;2.33;2.13;;;;;;;19.41;75.78;98979.63;5093515;28;20417;-79
2021/06/30 04:45:50;;;;;;;4.95;2.17;;;;;;;19.44;75.24;98988.28;5114335;27;20139;-78
2021/06/30 04:48:27;;;;;;;5.30;2.58;;;;;;;19.40;75.54;98983.19;5072997;28;20402;-79
2021/06/30 04:51:04;;;;;;;4.22;2.60;;;;;;;19.52;75.42;98984.28;5090001;27;20142;-77
2021/06/30 04:53:46;;;;;;;3.60;2.30;;;;;;;19.48;74.80;98969.56;5090702;27;20402;-79
2021/06/30 04:56:39;;;;;;;4.97;2.30;;;;;;;19.60;74.91;98951.28;5114419;27;20419;-77
2021/06/30 04:59:17;;;;;;;3.85;2.40;;;;;;;19.99;74.58;98973.59;5139684;27;20399;-79
2021/06/30 05:01:56;;;;;;;3.42;2.15;;;;;;;20.18;74.10;98968.03;5115318;27;20404;-79
2021/06/30 05:04:49;;;;;;;5.40;2.55;;;;;;;19.99;73.49;98931.34;5173969;27;20514;-78
2021/06/30 05:07:27;;;;;;;7.35;2.45;;;;;;;20.03;73.50;98924.94;5092114;27;20413;-77
2021/06/30 05:10:04;;;;;;;6.00;2.35;;;;;;;20.33;73.00;98947.75;5113191;27;20132;-79
2021/06/30 05:12:41;;;;;;;2.78;2.30;;;;;;;20.37;72.47;98957.19;5111420;27;20412;-80
2021/06/30 05:15:17;;;;;;;6.53;2.40;;;;;;;20.26;72.17;98920.88;5106149;27;1435720;-78
2021/06/30 05:17:55;;;;;;;4.45;2.40;;;;;;;20.45;72.15;98944.31;5113398;27;20422;-77
2021/06/30 05:20:31;;;;;;;3.78;2.15;;;;;;;20.43;72.08;98913.66;5110130;27;20143;-79
2021/06/30 05:23:10;;;;;;;4.03;2.50;;;;;;;20.77;72.06;98938.81;5110939;27;20929;-81
2021/06/30 05:25:50;;;;;;;4.43;2.20;;;;;;;20.72;71.67;98895.94;5129013;27;20398;-81
2021/06/30 05:28:28;;;;;;;7.65;2.28;;;;;;;20.94;71.06;98917.50;5099265;27;20777;-80
2021/06/30 05:31:06;;;;;;;13.45;2.85;;;;;;;20.81;71.31;98885.75;5071646;28;20881;-81
2021/06/30 05:33:46;;;;;;;3.78;2.20;;;;;;;21.24;70.89;98941.06;5073838;28;20770;-79
2021/06/30 05:36:25;;;;;;;4.47;2.50;;;;;;;21.27;70.92;98925.00;5113324;27;20442;-80
2021/06/30 05:39:01;;;;;;;5.88;2.90;;;;;;;21.33;70.76;98895.44;5104842;27;1443959;-82
2021/06/30 05:41:39;;;;;;;6.80;2.45;;;;;;;21.87;70.42;98921.84;5113754;27;20411;-81
2021/06/30 05:44:17;;;;;;;3.95;2.15;;;;;;;22.03;69.87;98903.94;5112856;27;20404;-80
2021/06/30 05:46:55;;;;;;;3.92;2.15;;;;;;;22.37;69.95;98930.69;5112853;27;20411;-81
2021/06/30 05:49:32;;;;;;;6.43;2.35;;;;;;;22.66;68.93;98934.84;5093139;28;20401;-78
2021/06/30 05:52:21;;;;;;;2.75;2.17;;;;;;;22.64;68.83;98936.75;5051963;28;20412;-79
2021/06/30 05:54:58;;;;;;;4.70;2.10;;;;;;;22.67;68.74;98928.59;5112730;27;20757;-80
2021/06/30 05:57:35;;;;;;;2.33;2.13;;;;;;;23.64;68.38;98925.81;5109341;27;20587;-78
2021/06/30 06:00:16;;;;;;;5.35;2.20;;;;;;;24.09;66.11;98897.63;5105353;27;20412;-81
2021/06/30 06:02:53;;;;;;;4.70;1.80;;;;;;;25.51;68.08;98917.13;5113091;27;20426;-78
2021/06/30 06:05:30;;;;;;;4.57;2.17;;;;;;;26.69;64.08;98894.38;5134678;27;20409;-81
2021/06/30 06:08:08;;;;;;;3.67;2.45;;;;;;;28.10;64.71;98908.09;5092926;27;20413;-78
2021/06/30 06:10:46;;;;;;;4.85;2.00;;;;;;;29.86;62.07;98912.19;5113105;27;20416;-80
2021/06/30 06:13:25;;;;;;;5.20;2.03;;;;;;;30.09;59.53;98914.34;5091839;27;20891;-81
2021/06/30 06:16:05;;;;;;;2.70;2.40;;;;;;;28.57;57.51;98908.97;5052724;28;20771;-79
2021/06/30 06:18:44;;;;;;;5.05;2.10;;;;;;;27.28;58.58;98921.09;5112023;27;20408;-79
2021/06/30 06:21:24;;;;;;;2.28;1.92;;;;;;;26.16;59.66;98915.03;5112479;27;20404;-78
2021/06/30 06:24:02;;;;;;;7.72;2.50;;;;;;;25.42;60.27;98951.53;5134835;27;20414;-80
2021/06/30 06:26:40;;;;;;;7.30;2.08;;;;;;;24.95;61.44;98964.28;5076817;27;20782;-79
2021/06/30 06:29:18;;;;;;;7.13;2.10;;;;;;;24.57;62.41;98921.22;5112847;27;20400;-81
2021/06/30 06:31:56;;;;;;;5.80;2.08;;;;;;;24.38;62.20;98944.94;5114093;27;20411;-80
2021/06/30 06:34:36;;;;;;;2.72;1.90;;;;;;;25.46;63.85;98940.63;5114371;27;20427;-80
2021/06/30 06:37:16;;;;;;;2.72;2.10;;;;;;;26.06;62.12;98907.97;5107626;27;20493;-79
2021/06/30 06:39:53;;;;;;;5.72;2.00;;;;;;;26.48;61.03;98936.34;5086937;28;20407;-80
2021/06/30 06:42:31;;;;;;;3.45;1.90;;;;;;;28.05;62.94;98905.00;5112189;27;20412;-79
2021/06/30 06:45:14;;;;;;;2.75;2.13;;;;;;;29.20;58.59;98935.84;5111884;27;20454;-79
2021/06/30 06:47:54;;;;;;;4.03;1.60;;;;;;;29.63;58.62;98936.84;5091562;27;20404;-80
2021/06/30 06:50:35;;;;;;;4.65;1.90;;;;;;;30.08;57.34;98896.56;5112754;27;20414;-79
2021/06/30 06:53:16;;;;;;;1.88;1.70;;;;;;;30.29;55.46;98904.16;5091620;27;20437;-78
2021/06/30 06:56:00;;;;;;;4.63;2.10;;;;;;;30.58;55.09;98933.28;5109721;27;20771;-80
2021/06/30 06:58:39;;;;;;;4.95;1.95;;;;;;;29.89;55.72;98931.47;5097036;27;20836;-79
2021/06/30 07:01:16;;;;;;;3.30;1.95;;;;;;;30.74;55.81;98912.88;5093872;27;20405;-76
2021/06/30 07:03:52;;;;;;;4.00;1.85;;;;;;;32.58;54.56;98921.25;5109545;27;20139;-80
2021/06/30 07:06:32;;;;;;;5.25;1.77;;;;;;;34.26;55.04;98912.31;5090122;27;20454;-78
2021/06/30 07:09:07;;;;;;;2.90;1.75;;;;;;;35.16;49.75;98896.66;5056426;27;2195968;-80
2021/06/30 07:11:44;;;;;;;4.10;2.40;;;;;;;35.85;48.91;98905.03;5110993;27;20128;-80
2021/06/30 07:14:22;;;;;;;2.60;1.83;;;;;;;36.41;48.94;98892.38;5071060;28;20142;-81
2021/06/30 07:17:03;;;;;;;3.15;1.92;;;;;;;36.92;48.08;98885.59;5111742;27;20793;-80
2021/06/30 07:19:49;;;;;;;2.72;1.58;;;;;;;37.72;47.15;98901.00;5070933;28;20176;-78
2021/06/30 07:22:26;;;;;;;2.80;2.00;;;;;;;37.31;44.70;98902.09;5111260;27;20787;-79
2021/06/30 07:25:06;;;;;;;2.30;1.65;;;;;;;36.97;44.59;98902.09;5172974;27;20922;-78
2021/06/30 07:27:46;;;;;;;4.10;1.42;;;;;;;36.69;46.63;98839.97;5103570;27;20461;-80
2021/06/30 07:30:41;;;;;;;2.97;2.13;;;;;;;36.97;44.58;98858.75;5110626;27;20181;-80
2021/06/30 07:33:22;;;;;;;5.70;1.98;;;;;;;36.86;42.55;98892.69;5112923;27;20416;-82
2021/06/30 07:36:09;;;;;;;2.85;2.08;;;;;;;36.61;44.88;98906.00;5071230;27;20395;-81
2021/06/30 07:38:47;;;;;;;3.17;1.80;;;;;;;36.51;45.14;98902.84;5111932;27;20423;-80
2021/06/30 07:41:26;;;;;;;6.22;2.00;;;;;;;36.92;43.38;98899.16;5195970;27;20434;-79
2021/06/30 07:44:07;;;;;;;4.40;1.85;;;;;;;36.07;43.84;98892.25;5091463;27;20425;-79
2021/06/30 07:46:49;;;;;;;8.02;1.92;;;;;;;35.63;45.42;98905.13;5070080;28;20425;-81
2021/06/30 07:49:30;;;;;;;6.60;1.90;;;;;;;34.64;45.38;98912.16;5111408;27;20404;-79
2021/06/30 07:52:07;;;;;;;3.05;2.00;;;;;;;34.88;44.73;98877.69;5138931;27;20413;-81
2021/06/30 07:54:49;;;;;;;3.72;1.90;;;;;;;35.84;45.47;98843.84;5059591;28;20389;-80
2021/06/30 07:57:32;;;;;;;3.45;1.92;;;;;;;35.82;44.30;98910.84;5114094;27;20133;-78
2021/06/30 08:00:11;;;;;;;4.25;2.05;;;;;;;35.01;44.67;98920.22;5107505;27;20372;-79
2021/06/30 08:02:53;;;;;;;2.63;1.95;;;;;;;33.90;45.00;98917.47;5117291;27;20415;-79
2021/06/30 08:05:34;;;;;;;5.18;2.10;;;;;;;32.46;45.37;98923.50;5128165;27;20420;-80
2021/06/30 08:08:11;;;;;;;3.17;1.77;;;;;;;31.45;47.15;98929.31;5135312;27;20391;-80
2021/06/30 08:10:50;;;;;;;2.70;2.10;;;;;;;31.05;48.95;98929.16;5114585;27;20151;-79
2021/06/30 08:13:28;;;;;;;3.50;2.30;;;;;;;30.57;49.60;98906.63;5111405;27;20938;-79
2021/06/30 08:16:06;;;;;;;3.78;2.20;;;;;;;30.85;50.35;98923.28;5073046;28;20134;-77
2021/06/30 08:18:44;;;;;;;2.30;2.10;;;;;;;30.96;49.78;98911.38;5115935;27;20791;-79
2021/06/30 08:21:25;;;;;;;3.17;2.20;;;;;;;30.78;48.73;98914.22;5095100;27;20449;-79
2021/06/30 08:24:01;;;;;;;5.72;2.30;;;;;;;31.64;50.12;98919.25;5114019;27;20137;-79
2021/06/30 08:26:39;;;;;;;3.88;2.70;;;;;;;31.05;47.93;98888.03;5082033;28;20141;-79
2021/06/30 08:29:20;;;;;;;6.30;2.70;;;;;;;30.25;48.41;98917.06;5074637;28;20430;-79
2021/06/30 08:31:58;;;;;;;4.65;2.50;;;;;;;29.52;49.75;98912.97;5115466;27;20403;-79
2021/06/30 08:34:36;;;;;;;4.00;2.20;;;;;;;29.46;50.95;98936.72;5074760;28;20429;-79
2021/06/30 08:37:12;;;;;;;4.15;2.42;;;;;;;29.16;51.07;98876.38;5099377;28;20641;-78
2021/06/30 08:39:54;;;;;;;2.30;2.10;;;;;;;29.36;51.29;98930.63;5073497;27;20139;-77
2021/06/30 08:42:33;;;;;;;4.10;2.63;;;;;;;28.70;51.53;98930.00;5114156;27;20432;-78
2021/06/30 08:45:11;;;;;;;5.15;2.60;;;;;;;28.00;52.01;98925.16;5096452;27;20412;-77
2021/06/30 08:48:08;;;;;;;3.38;2.53;;;;;;;27.61;53.77;98931.47;5075707;28;20416;-81
2021/06/30 08:50:46;;;;;;;3.05;2.50;;;;;;;27.33;54.26;98899.31;5114530;27;20427;-79
2021/06/30 08:53:24;;;;;;;2.60;2.40;;;;;;;27.34;53.64;98911.69;5121491;27;20406;-79
2021/06/30 08:56:03;;;;;;;3.55;2.60;;;;;;;26.94;54.16;98926.00;5130725;27;20422;-79
2021/06/30 08:58:41;;;;;;;3.03;2.55;;;;;;;26.58;55.06;98939.88;5076531;28;20422;-79
2021/06/30 09:01:20;;;;;;;5.10;2.60;;;;;;;26.09;55.75;98937.00;5111002;27;20424;-80
2021/06/30 09:03:59;;;;;;;3.25;2.47;;;;;;;25.61;56.03;98926.00;5131856;27;20399;-79
2021/06/30 09:06:36;;;;;;;5.57;2.47;;;;;;;25.27;56.51;98921.69;5090494;28;20414;-78
2021/06/30 09:09:14;;;;;;;3.80;2.83;;;;;;;25.04;57.03;98944.06;5130838;27;20146;-79
2021/06/30 09:11:58;;;;;;;2.67;2.33;;;;;;;24.58;57.91;98924.72;5109585;28;20423;-78
2021/06/30 09:14:41;;;;;;;5.18;2.88;;;;;;;24.27;58.51;98922.72;5126718;27;20418;-82
2021/06/30 09:17:26;;;;;;;3.25;2.60;;;;;;;23.98;58.35;98940.97;5088803;28;20430;-79
2021/06/30 09:20:07;;;;;;;2.65;2.40;;;;;;;23.64;59.06;98941.75;5129851;27;20396;-79
2021/06/30 09:22:51;;;;;;;4.13;2.80;;;;;;;23.34;59.73;98947.59;5129596;27;20426;-79
2021/06/30 09:25:36;;;;;;;7.47;3.17;;;;;;;23.10;60.92;98954.59;5115340;27;20418;-81
2021/06/30 09:28:21;;;;;;;8.13;3.20;;;;;;;22.83;61.14;98934.47;5104113;27;20416;-81
2021/06/30 09:31:01;;;;;;;7.65;4.18;;;;;;;22.61;61.45;98916.63;5071819;28;20480;-80
2021/06/30 09:33:54;;;;;;;6.85;3.60;;;;;;;22.61;62.39;98942.31;5112704;27;20441;-80
2021/06/30 09:36:44;;;;;;;11.15;4.80;;;;;;;22.60;61.98;98952.06;5111114;27;20412;-78
2021/06/30 09:39:22;;;;;;;9.30;4.43;;;;;;;22.60;62.63;98975.09;5111771;27;20415;-78
2021/06/30 09:42:10;;;;;;;7.45;3.22;;;;;;;22.08;62.68;98922.16;5071921;28;20743;-79
2021/06/30 09:44:47;;;;;;;4.53;3.08;;;;;;;22.23;62.55;98982.00;5113861;27;20419;-77
2021/06/30 09:47:24;;;;;;;7.07;3.75;;;;;;;22.09;63.50;98985.59;5113374;27;20140;-79
2021/06/30 09:50:01;;;;;;;5.65;2.55;;;;;;;21.91;63.21;98979.81;5100850;27;20413;-78
2021/06/30 09:52:40;;;;;;;6.13;2.25;;;;;;;21.70;63.48;98984.75;5122883;27;20134;-78
2021/06/30 09:55:23;;;;;;;11.00;2.75;;;;;;;21.68;63.60;98999.91;5112433;27;20415;-80
2021/06/30 09:58:00;;;;;;;7.63;2.53;;;;;;;21.58;64.26;98969.69;5107495;27;20412;-78
2021/06/30 10:00:37;;;;;;;5.55;2.25;;;;;;;21.81;64.64;98970.78;5063777;28;20139;-80
2021/06/30 10:03:39;;;;;;;7.40;2.30;;;;;;;22.07;64.56;98976.91;5111666;27;20136;-79
2021/06/30 10:06:35;;;;;;;4.70;2.22;;;;;;;22.12;64.08;98992.50;5115240;27;20931;-79
2021/06/30 10:09:14;;;;;;;5.00;2.30;;;;;;;21.97;64.26;98989.13;5037177;28;20419;-79
2021/06/30 10:11:56;;;;;;;10.02;3.55;;;;;;;21.91;64.47;98995.69;5067357;27;20415;-83
2021/06/30 10:14:34;;;;;;;6.10;3.10;;;;;;;21.80;64.57;99006.16;5097959;27;20410;-77
2021/06/30 10:17:13;;;;;;;6.70;2.90;;;;;;;21.53;65.07;98983.22;5098232;27;20504;-80
2021/06/30 10:19:53;;;;;;;7.20;2.80;;;;;;;21.50;65.22;99020.50;5098047;27;20413;-78
2021/06/30 10:22:31;;;;;;;5.40;3.00;;;;;;;21.37;65.85;99005.41;5113317;27;20414;-81
2021/06/30 10:25:09;;;;;;;4.18;2.47;;;;;;;21.27;65.91;99016.72;5103464;27;20409;-79
2021/06/30 10:27:47;;;;;;;5.13;2.63;;;;;;;20.94;65.87;98994.19;5090493;27;20413;-80
2021/06/30 10:30:27;;;;;;;4.95;2.60;;;;;;;20.84;66.35;99004.50;5050417;28;20418;-79
2021/06/30 10:33:33;;;;;;;3.80;2.53;;;;;;;20.72;66.49;99024.59;5069326;28;20755;-79
2021/06/30 10:36:15;;;;;;;3.83;2.85;;;;;;;20.47;67.17;99010.28;5061133;28;20424;-80
2021/06/30 10:38:58;;;;;;;3.55;2.80;;;;;;;19.81;68.26;98926.22;5130095;27;20398;-80
2021/06/30 10:41:38;;;;;;;4.63;2.78;;;;;;;20.44;68.72;99029.81;5091421;27;20401;-80
2021/06/30 10:44:26;;;;;;;4.35;2.60;;;;;;;20.33;69.25;99034.91;5132769;27;20494;-80
2021/06/30 10:47:43;;;;;;;4.95;2.90;;;;;;;20.09;69.73;99017.00;5091910;27;20405;-81
2021/06/30 10:50:41;;;;;;;6.13;3.28;;;;;;;20.09;69.64;99027.56;5071400;27;20184;-81
2021/06/30 10:53:29;;;;;;;4.15;3.30;;;;;;;20.06;70.61;99025.09;5112333;27;20418;-81
2021/06/30 10:56:10;;;;;;;5.53;3.05;;;;;;;20.11;70.70;99022.16;5090987;27;20125;-80
2021/06/30 10:59:07;;;;;;;4.93;3.10;;;;;;;20.39;71.58;99010.78;5108252;27;20404;-78
2021/06/30 11:02:13;;;;;;;4.10;2.90;;;;;;;21.05;71.35;99026.06;5132992;27;20449;-83
2021/06/30 11:04:49;;;;;;;6.78;2.92;;;;;;;21.57;70.67;99013.81;5084028;27;1572887;-81
2021/06/30 11:07:31;;;;;;;4.25;2.53;;;;;;;21.92;70.60;99015.94;5091546;27;20405;-78
2021/06/30 11:10:21;;;;;;;4.57;3.20;;;;;;;22.30;69.98;99011.53;5110664;27;20936;-79
2021/06/30 11:12:59;;;;;;;6.70;2.85;;;;;;;22.04;69.36;98934.78;5070009;28;20410;-80
2021/06/30 11:15:36;;;;;;;5.32;2.85;;;;;;;22.64;68.59;99005.69;5069351;28;20406;-80
2021/06/30 11:18:12;;;;;;;4.15;2.42;;;;;;;22.74;67.91;99004.09;5110283;27;20439;-80
2021/06/30 11:21:00;;;;;;;5.95;2.60;;;;;;;22.82;67.38;98985.81;5117693;27;20147;-78
2021/06/30 11:23:42;;;;;;;4.10;2.47;;;;;;;23.27;67.17;99000.31;5072095;28;20937;-79
2021/06/30 11:26:35;;;;;;;3.95;2.50;;;;;;;23.36;65.77;98980.19;5069033;27;20401;-79
2021/06/30 11:29:40;;;;;;;3.75;2.20;;;;;;;23.23;64.71;98999.66;5085621;27;20408;-80
2021/06/30 11:32:37;;;;;;;5.28;2.58;;;;;;;23.22;64.97;98999.78;5113194;27;20411;-80
2021/06/30 11:35:19;;;;;;;3.70;2.33;;;;;;;23.26;64.00;99018.00;5113988;27;20407;-78
2021/06/30 11:38:11;;;;;;;2.97;1.95;;;;;;;23.25;63.46;99007.53;5113990;27;20408;-79
2021/06/30 11:41:11;;;;;;;3.75;2.00;;;;;;;23.22;63.04;98997.97;5157942;27;20409;-81
2021/06/30 11:43:48;;;;;;;6.32;2.20;;;;;;;23.29;63.25;98996.56;5113361;27;20411;-79
2021/06/30 11:46:27;;;;;;;5.88;1.98;;;;;;;23.26;63.07;99003.91;5092662;28;20764;-80
2021/06/30 11:49:07;;;;;;;3.30;1.90;;;;;;;23.38;62.53;98995.03;5073114;28;20407;-79
2021/06/30 11:51:55;;;;;;;2.90;1.80;;;;;;;23.56;62.42;98999.91;5100622;27;20401;-77
2021/06/30 11:54:32;;;;;;;3.13;1.40;;;;;;;23.69;61.99;98986.53;5091296;27;20416;-79
2021/06/30 11:57:09;;;;;;;4.00;1.10;;;;;;;23.68;61.37;98976.88;5111903;27;20147;-82
2021/06/30 11:59:46;;;;;;;2.13;1.30;;;;;;;23.69;60.39;98974.13;5090967;27;20141;-77
2021/06/30 12:02:22;;;;;;;3.00;1.40;;;;;;;23.76;60.47;98971.84;5110318;27;20132;-79
2021/06/30 12:05:10;;;;;;;1.95;1.20;;;;;;;23.89;60.11;98983.19;5109543;27;20136;-79
2021/06/30 12:07:54;;;;;;;4.30;1.27;;;;;;;23.84;59.90;98989.81;5110536;27;20919;-80
2021/06/30 12:10:32;;;;;;;2.53;1.38;;;;;;;23.74;60.23;98987.88;5113212;27;20410;-78
2021/06/30 12:13:14;;;;;;;4.63;1.60;;;;;;;23.70;60.27;98991.75;5113981;27;20444;-77
2021/06/30 12:15:51;;;;;;;5.13;1.60;;;;;;;23.36;60.06;98957.13;5073293;28;20762;-79
2021/06/30 12:18:27;;;;;;;3.85;1.58;;;;;;;23.43;59.83;98998.19;5113446;27;20140;-77
2021/06/30 12:21:04;;;;;;;4.00;1.70;;;;;;;22.97;59.58;99009.53;5105474;27;20144;-77
2021/06/30 12:23:42;;;;;;;3.15;1.88;;;;;;;22.54;60.21;98993.09;5114085;27;20141;-80
2021/06/30 12:26:19;;;;;;;4.65;1.75;;;;;;;22.18;60.59;98984.13;5104821;27;20404;-79
2021/06/30 12:28:56;;;;;;;2.45;1.60;;;;;;;22.18;61.14;99010.59;5096878;27;20141;-82
2021/06/30 12:31:34;;;;;;;5.18;1.80;;;;;;;22.19;60.96;99014.13;5113305;27;20749;-82